Irvine, KY (40336)

11:19 AM EDT on July 26, 2016 (GMT -0400)
Estill Co High School Area | | Change Station

Elev 705 ft 37.72 °N, 83.99 °W | Updated 2 minutes ago

Clear
Clear
85.1 °F
Feels Like 91 °F
N
2.7
Wind Variable Wind from West

Today
High -- | Low -- °F
--% Chance of Precip.
Yesterday
High -- | Low -- °F
Precip. -- in
Pressure 30.07 in
Visibility 10.0 miles
Clouds Clear
Heat Index 91 °F
Dew Point 72 °F
Humidity 66%
Rainfall 0.00 in
Snow Depth Not available.
6:35 AM 8:49 PM
Waning Gibbous, 54% visible
METAR KI39 261515Z AUTO 00000KT 10SM CLR 28/22 A3007 RMK AO2
Pressure 30.07 in
Visibility 10.0 miles
Clouds Clear
Heat Index 91 °F
Dew Point 72 °F
Humidity 66%
Rainfall 0.00 in
Snow Depth Not available.
6:35 AM 8:49 PM
Waning Gibbous, 54% visible
METAR KI39 261515Z AUTO 00000KT 10SM CLR 28/22 A3007 RMK AO2

10-Day Weather Forecast

Almanac

Astronomy

Jul. 26, 2016 Rise Set
Actual Time
Civil Twilight
Nautical Twilight
Astronomical Twilight
Moon
Length of Visible Light
Length of Day
Tomorrow will be .
, % of the Moon is Illuminated

Today's Extremes

State Highs State Lows

Community

WunderPhotos

Upload Photos

1,927,612 photos uploaded!

WunderBlog® & News

Nearby

Air Quality

  Air Quality AQ Index Pollutant
Not available.

Snow Depth

Station Depth Elevation

Earthquake Activity

City Distance Mag. Time & Date
Minimum magnitude displayed is 2.5.

Coastal Water Temperatures

Place Temperature

Stations

Nearby Weather Stations

Station Location Temp. Windchill Dew Point Humidity Wind Precip. Elev Updated Type
                   

Watches & Warnings

There are currently no watches in effect.